Time;durP1;ratioP1;P1;durP2;ratioP2;P2;SDS_P1;SDS_P2;PMS_P1;PMS_P2;Temp;Humidity;BMP_temperature;BMP_pressure;BME280_temperature;BME280_humidity;BME280_pressure;Samples;Min_cycle;Max_cycle;Signal;HPM_P1;HPM_P2
2024/01/29 00:01:10;;;;;;;;;;;;;;;17.69;42.49;100615.66;10330443;28;1894;-69
2024/01/29 00:06:06;;;;;;;;;;;;;;;17.69;42.38;100602.47;10329421;28;974;-69
2024/01/29 00:11:02;;;;;;;;;;;;;;;17.68;42.57;100592.81;10329268;28;883;-70
2024/01/29 00:15:58;;;;;;;;;;;;;;;17.68;42.56;100596.34;10329106;28;869;-69
2024/01/29 00:20:57;;;;;;;;;;;;;;;17.66;42.56;100578.84;10328920;28;1894;-69
2024/01/29 00:25:53;;;;;;;;;;;;;;;17.67;42.66;100578.78;10329651;28;1366;-70
2024/01/29 00:30:48;;;;;;;;;;;;;;;17.67;42.39;100572.66;10327694;28;842;-69
2024/01/29 00:35:44;;;;;;;;;;;;;;;17.65;42.34;100564.78;10328925;28;885;-69
2024/01/29 00:40:40;;;;;;;;;;;;;;;17.64;42.51;100562.22;10328031;28;1905;-69
2024/01/29 00:45:36;;;;;;;;;;;;;;;17.64;42.55;100556.94;10327831;28;962;-70
2024/01/29 00:50:32;;;;;;;;;;;;;;;17.64;42.39;100560.44;10327680;28;890;-69
2024/01/29 00:55:28;;;;;;;;;;;;;;;17.64;42.36;100564.84;10328047;28;825;-70
2024/01/29 01:00:24;;;;;;;;;;;;;;;17.62;42.38;100562.25;10327211;28;1894;-70
2024/01/29 01:05:20;;;;;;;;;;;;;;;17.63;42.48;100571.91;10327113;28;846;-69
2024/01/29 01:10:16;;;;;;;;;;;;;;;17.61;42.18;100571.06;10326932;28;863;-69
2024/01/29 01:15:12;;;;;;;;;;;;;;;17.60;42.35;100571.97;10327419;28;882;-69
2024/01/29 01:20:08;;;;;;;;;;;;;;;17.60;42.30;100573.75;10326412;28;1914;-69
2024/01/29 01:25:04;;;;;;;;;;;;;;;17.59;42.22;100569.38;10326589;28;1268;-69
2024/01/29 01:30:00;;;;;;;;;;;;;;;17.59;42.12;100570.25;10326901;28;881;-69
2024/01/29 01:34:56;;;;;;;;;;;;;;;17.57;42.20;100561.50;10326630;28;864;-69
2024/01/29 01:39:52;;;;;;;;;;;;;;;17.58;42.30;100568.53;10325840;28;1975;-69
2024/01/29 01:44:48;;;;;;;;;;;;;;;17.57;42.28;100569.41;10325809;28;889;-69
2024/01/29 01:49:44;;;;;;;;;;;;;;;17.58;42.19;100586.97;10325701;28;887;-69
2024/01/29 01:54:40;;;;;;;;;;;;;;;17.57;42.34;100594.91;10325633;28;993;-70
2024/01/29 01:59:36;;;;;;;;;;;;;;;17.55;42.17;100602.84;10325438;28;1965;-70
2024/01/29 02:04:32;;;;;;;;;;;;;;;17.55;42.00;100588.81;10326104;28;850;-69
2024/01/29 02:09:28;;;;;;;;;;;;;;;17.56;42.00;100591.44;10326554;28;908;-70
2024/01/29 02:14:24;;;;;;;;;;;;;;;17.53;41.94;100592.38;10326452;28;791;-69
2024/01/29 02:19:20;;;;;;;;;;;;;;;17.53;41.91;100586.25;10325700;28;1898;-70
2024/01/29 02:24:16;;;;;;;;;;;;;;;17.53;42.01;100602.06;10325084;28;855;-69
2024/01/29 02:29:12;;;;;;;;;;;;;;;17.53;41.91;100599.44;10324803;28;1291;-70
2024/01/29 02:34:07;;;;;;;;;;;;;;;17.52;41.82;100597.69;10324874;28;871;-69
2024/01/29 02:39:03;;;;;;;;;;;;;;;17.51;41.92;100604.72;10324711;28;1918;-69
2024/01/29 02:43:59;;;;;;;;;;;;;;;17.50;41.91;100610.91;10325194;28;850;-69
2024/01/29 02:48:55;;;;;;;;;;;;;;;17.50;42.05;100615.31;10325158;28;819;-69
2024/01/29 02:53:51;;;;;;;;;;;;;;;17.51;41.93;100617.06;10327932;28;830;-69
2024/01/29 02:58:47;;;;;;;;;;;;;;;17.51;41.86;100627.59;10331303;28;1943;-69
2024/01/29 03:03:43;;;;;;;;;;;;;;;17.50;41.85;100628.47;10331894;28;972;-69
2024/01/29 03:08:39;;;;;;;;;;;;;;;17.49;42.13;100630.25;10332330;28;790;-69
2024/01/29 03:13:34;;;;;;;;;;;;;;;17.49;42.27;100627.63;10332106;28;875;-69
2024/01/29 03:18:30;;;;;;;;;;;;;;;17.49;42.20;100634.69;10331253;28;1898;-69
2024/01/29 03:23:26;;;;;;;;;;;;;;;17.49;42.07;100627.63;10331391;28;1235;-69
2024/01/29 03:28:22;;;;;;;;;;;;;;;17.47;42.02;100621.53;10331618;28;1144;-69
2024/01/29 03:33:18;;;;;;;;;;;;;;;17.47;42.11;100618.03;10330797;28;786;-69
2024/01/29 03:38:14;;;;;;;;;;;;;;;17.48;42.14;100625.06;10330517;28;1971;-69
2024/01/29 03:43:10;;;;;;;;;;;;;;;17.48;42.14;100617.16;10331141;28;858;-69
2024/01/29 03:48:05;;;;;;;;;;;;;;;17.47;42.23;100628.56;10330877;28;861;-69
2024/01/29 03:53:01;;;;;;;;;;;;;;;17.46;42.20;100640.91;10329472;28;851;-69
2024/01/29 03:57:57;;;;;;;;;;;;;;;17.47;42.13;100639.13;10330409;28;1898;-70
2024/01/29 04:02:53;;;;;;;;;;;;;;;17.48;42.06;100648.78;10330475;28;877;-69
2024/01/29 04:07:49;;;;;;;;;;;;;;;17.46;42.12;100646.16;10328292;28;859;-69
2024/01/29 04:12:45;;;;;;;;;;;;;;;17.45;42.27;100636.53;10329946;28;830;-70
2024/01/29 04:17:41;;;;;;;;;;;;;;;17.45;42.31;100647.09;10329078;28;864;-69
2024/01/29 04:22:37;;;;;;;;;;;;;;;17.45;42.10;100647.09;10329484;28;1882;-70
2024/01/29 04:27:32;;;;;;;;;;;;;;;17.45;42.37;100643.59;10328804;28;1144;-69
2024/01/29 04:32:28;;;;;;;;;;;;;;;17.44;42.20;100633.94;10329125;28;822;-69
2024/01/29 04:37:24;;;;;;;;;;;;;;;17.44;42.25;100640.06;10328938;28;910;-69
2024/01/29 04:42:20;;;;;;;;;;;;;;;17.44;42.31;100634.78;10328576;28;1973;-70
2024/01/29 04:47:16;;;;;;;;;;;;;;;17.46;42.06;100637.41;10327259;28;1140;-70
2024/01/29 04:52:12;;;;;;;;;;;;;;;17.46;42.26;100633.00;10327776;28;942;-69
2024/01/29 04:57:08;;;;;;;;;;;;;;;17.48;42.02;100635.59;10328129;28;864;-69
2024/01/29 05:02:04;;;;;;;;;;;;;;;17.50;42.05;100639.03;10327271;28;1905;-70
2024/01/29 05:07:00;;;;;;;;;;;;;;;17.50;42.03;100634.66;10327050;28;847;-69
2024/01/29 05:11:56;;;;;;;;;;;;;;;17.52;42.17;100645.13;10327128;28;926;-69
2024/01/29 05:16:52;;;;;;;;;;;;;;;17.53;42.04;100641.59;10326401;28;896;-69
2024/01/29 05:21:48;;;;;;;;;;;;;;;17.55;42.07;100652.94;10326520;28;1898;-69
2024/01/29 05:26:44;;;;;;;;;;;;;;;17.58;42.02;100652.88;10326738;28;1335;-69
2024/01/29 05:31:40;;;;;;;;;;;;;;;17.58;41.98;100660.78;10326193;28;876;-69
2024/01/29 05:36:35;;;;;;;;;;;;;;;17.60;42.22;100663.38;10326735;28;977;-70
2024/01/29 05:41:31;;;;;;;;;;;;;;;17.62;42.00;100677.38;10326106;28;1989;-69
2024/01/29 05:46:27;;;;;;;;;;;;;;;17.62;42.15;100667.69;10325795;28;911;-69
2024/01/29 05:51:23;;;;;;;;;;;;;;;17.62;42.15;100672.97;10326339;28;860;-69
2024/01/29 05:56:19;;;;;;;;;;;;;;;17.63;41.91;100672.06;10325671;28;770;-70
2024/01/29 06:01:15;;;;;;;;;;;;;;;17.65;42.18;100672.88;10325456;28;1937;-69
2024/01/29 06:06:11;;;;;;;;;;;;;;;17.65;42.19;100670.25;10326268;28;862;-69
2024/01/29 06:11:07;;;;;;;;;;;;;;;17.67;41.94;100672.84;10325328;28;825;-70
2024/01/29 06:16:03;;;;;;;;;;;;;;;17.70;42.08;100685.94;10325222;28;766;-70
2024/01/29 06:21:00;;;;;;;;;;;;;;;17.70;42.04;100686.78;10326738;28;1971;-70
2024/01/29 06:25:56;;;;;;;;;;;;;;;17.70;41.86;100694.72;10324571;28;1342;-76
2024/01/29 06:30:52;;;;;;;;;;;;;;;17.69;41.92;100693.00;10330815;28;925;-70
2024/01/29 06:35:48;;;;;;;;;;;;;;;17.70;42.15;100689.44;10333868;28;849;-71
2024/01/29 06:40:44;;;;;;;;;;;;;;;17.69;41.86;100692.13;10332795;28;1922;-70
2024/01/29 06:45:39;;;;;;;;;;;;;;;17.68;41.76;100686.00;10332624;28;838;-69
2024/01/29 06:50:35;;;;;;;;;;;;;;;17.68;41.66;100693.91;10332467;28;952;-71
2024/01/29 06:55:31;;;;;;;;;;;;;;;17.64;41.82;100689.63;10332482;28;853;-71
2024/01/29 07:00:27;;;;;;;;;;;;;;;17.61;41.66;100694.97;10332594;28;2018;-71
2024/01/29 07:05:23;;;;;;;;;;;;;;;17.62;41.56;100699.31;10332014;28;929;-68
2024/01/29 07:10:19;;;;;;;;;;;;;;;17.64;41.07;100689.63;10332340;28;794;-69
2024/01/29 07:15:15;;;;;;;;;;;;;;;17.66;40.96;100695.72;10331513;28;859;-68
2024/01/29 07:20:11;;;;;;;;;;;;;;;17.66;40.94;100695.72;10332075;28;1961;-69
2024/01/29 07:25:08;;;;;;;;;;;;;;;17.68;40.95;100707.09;10331059;28;1146;-70
2024/01/29 07:30:03;;;;;;;;;;;;;;;17.70;40.76;100697.34;10331153;28;760;-71
2024/01/29 07:35:03;;;;;;;;;;;;;;;17.72;40.60;100703.44;10331434;28;861;-70
2024/01/29 07:39:59;;;;;;;;;;;;;;;17.71;40.77;100707.00;10330649;28;1914;-70
2024/01/29 07:44:55;;;;;;;;;;;;;;;17.70;40.92;100707.88;10330492;28;958;-73
2024/01/29 07:49:51;;;;;;;;;;;;;;;17.71;40.92;100703.47;10331553;28;826;-70
2024/01/29 07:54:47;;;;;;;;;;;;;;;17.70;40.66;100699.97;10329536;28;848;-72
2024/01/29 07:59:45;;;;;;;;;;;;;;;17.70;40.76;100702.63;10330602;28;1956;-69
2024/01/29 08:04:41;;;;;;;;;;;;;;;17.68;41.02;100701.81;10330266;28;940;-70
2024/01/29 08:09:37;;;;;;;;;;;;;;;17.66;40.92;100708.03;10328928;28;869;-70
2024/01/29 08:14:33;;;;;;;;;;;;;;;17.66;41.00;100708.03;10330021;28;874;-71
2024/01/29 08:19:29;;;;;;;;;;;;;;;17.70;40.85;100717.56;10329058;28;1957;-75
2024/01/29 08:24:25;;;;;;;;;;;;;;;17.73;41.26;100720.97;10329562;28;873;-75
2024/01/29 08:29:21;;;;;;;;;;;;;;;17.76;41.48;100720.03;10328526;28;1297;-73
2024/01/29 08:34:17;;;;;;;;;;;;;;;17.78;41.53;100717.38;10327886;28;1067;-72
2024/01/29 08:39:13;;;;;;;;;;;;;;;17.79;41.25;100725.28;10328246;28;1914;-71
2024/01/29 08:44:10;;;;;;;;;;;;;;;17.78;41.41;100725.28;10328662;28;929;-71
2024/01/29 08:49:06;;;;;;;;;;;;;;;17.80;41.43;100720.88;10328466;28;878;-70
2024/01/29 08:54:02;;;;;;;;;;;;;;;17.80;41.26;100718.22;10327626;28;823;-71
2024/01/29 08:58:58;;;;;;;;;;;;;;;17.80;41.35;100723.50;10328173;28;1886;-74
2024/01/29 09:03:54;;;;;;;;;;;;;;;17.79;41.54;100719.09;10327186;28;903;-75
2024/01/29 09:08:50;;;;;;;;;;;;;;;17.75;41.46;100718.31;10327013;28;1008;-71
2024/01/29 09:13:52;;;;;;;;;;;;;;;17.78;41.23;100718.22;10327961;28;782;-70
2024/01/29 09:18:47;;;;;;;;;;;;;;;17.81;40.84;100725.22;10326623;28;1945;-70
2024/01/29 09:23:43;;;;;;;;;;;;;;;17.82;41.05;100730.47;10325970;28;1028;-70
2024/01/29 09:28:41;;;;;;;;;;;;;;;17.84;40.83;100727.78;10326800;28;1136;-70
2024/01/29 09:33:37;;;;;;;;;;;;;;;17.85;40.88;100724.25;10326167;28;887;-70
2024/01/29 09:38:33;;;;;;;;;;;;;;;17.86;40.97;100725.97;10326894;28;1906;-70
2024/01/29 09:43:29;;;;;;;;;;;;;;;17.87;40.89;100730.34;10326614;28;806;-70
2024/01/29 09:48:24;;;;;;;;;;;;;;;17.87;40.98;100725.94;10325868;28;937;-70
2024/01/29 09:53:20;;;;;;;;;;;;;;;17.88;40.84;100732.06;10326572;28;818;-70
2024/01/29 09:58:17;;;;;;;;;;;;;;;17.90;40.89;100743.44;10326114;28;1894;-69
2024/01/29 10:03:13;;;;;;;;;;;;;;;17.91;40.87;100747.78;10326122;28;862;-69
2024/01/29 10:08:08;;;;;;;;;;;;;;;17.90;40.80;100748.72;10325377;28;955;-69
2024/01/29 10:13:04;;;;;;;;;;;;;;;17.91;40.92;100737.25;10325501;28;1342;-70
2024/01/29 10:18:00;;;;;;;;;;;;;;;17.92;40.99;100731.94;10325260;28;795;-70
2024/01/29 10:22:56;;;;;;;;;;;;;;;17.94;40.64;100732.75;10326120;28;1902;-70
2024/01/29 10:27:52;;;;;;;;;;;;;;;17.94;40.69;100731.88;10325466;28;1326;-69
2024/01/29 10:32:48;;;;;;;;;;;;;;;17.93;40.80;100749.50;10325264;28;880;-71
2024/01/29 10:37:44;;;;;;;;;;;;;;;17.93;40.59;100749.50;10324212;28;885;-71
2024/01/29 10:42:39;;;;;;;;;;;;;;;17.94;40.63;100756.47;10325385;28;1977;-71
2024/01/29 10:47:35;;;;;;;;;;;;;;;17.95;40.54;100760.00;10324610;28;1067;-71
2024/01/29 10:52:31;;;;;;;;;;;;;;;17.96;40.41;100757.31;10323913;28;774;-70
2024/01/29 10:57:27;;;;;;;;;;;;;;;17.99;40.46;100752.88;10325022;28;842;-70
2024/01/29 11:02:23;;;;;;;;;;;;;;;18.00;40.39;100750.19;10324278;28;1897;-71
2024/01/29 11:07:19;;;;;;;;;;;;;;;18.00;40.67;100744.91;10325463;28;787;-70
2024/01/29 11:12:15;;;;;;;;;;;;;;;18.01;40.49;100746.63;10324805;28;947;-70
2024/01/29 11:17:11;;;;;;;;;;;;;;;18.01;40.63;100745.78;10330370;28;926;-70
2024/01/29 11:22:07;;;;;;;;;;;;;;;18.04;40.40;100749.19;10331291;28;1949;-71
2024/01/29 11:27:02;;;;;;;;;;;;;;;18.05;40.55;100743.00;10331568;28;1127;-70
2024/01/29 11:31:58;;;;;;;;;;;;;;;18.09;40.51;100741.13;10330466;28;936;-73
2024/01/29 11:36:55;;;;;;;;;;;;;;;18.10;40.72;100737.59;10330972;28;1067;-74
2024/01/29 11:41:51;;;;;;;;;;;;;;;18.11;41.02;100740.19;10330551;28;1985;-71
2024/01/29 11:46:47;;;;;;;;;;;;;;;18.11;40.89;100734.06;10331328;28;843;-75
2024/01/29 11:51:43;;;;;;;;;;;;;;;18.13;40.97;100732.22;10330266;28;875;-72
2024/01/29 11:56:39;;;;;;;;;;;;;;;18.16;41.07;100747.97;10330113;28;882;-72
2024/01/29 12:01:35;;;;;;;;;;;;;;;18.17;41.08;100749.69;10330452;28;1898;-73
2024/01/29 12:06:34;;;;;;;;;;;;;;;18.21;40.88;100761.91;10329736;28;979;-70
2024/01/29 12:11:30;;;;;;;;;;;;;;;18.23;40.97;100767.97;10329444;28;791;-71
2024/01/29 12:16:26;;;;;;;;;;;;;;;18.27;41.25;100763.50;10329290;28;848;-78
2024/01/29 12:21:22;;;;;;;;;;;;;;;18.32;41.22;100761.59;10328952;28;1890;-70
2024/01/29 12:26:18;;;;;;;;;;;;;;;18.32;41.05;100769.50;10327775;28;1483;-75
2024/01/29 12:31:14;;;;;;;;;;;;;;;18.31;40.92;100768.66;10328706;28;913;-70
2024/01/29 12:36:10;;;;;;;;;;;;;;;18.33;41.18;100765.94;10329075;28;963;-72
2024/01/29 12:41:06;;;;;;;;;;;;;;;18.35;40.91;100766.78;10328226;28;1909;-72
2024/01/29 12:46:02;;;;;;;;;;;;;;;18.35;40.91;100766.78;10327962;28;986;-69
2024/01/29 12:50:58;;;;;;;;;;;;;;;18.34;40.90;100765.06;10327782;28;969;-68
2024/01/29 12:55:54;;;;;;;;;;;;;;;18.35;41.03;100761.50;10327566;28;844;-69
2024/01/29 13:00:51;;;;;;;;;;;;;;;18.35;40.98;100753.56;10328232;28;1951;-68
2024/01/29 13:05:47;;;;;;;;;;;;;;;18.35;40.92;100753.56;10327269;28;857;-72
2024/01/29 13:10:42;;;;;;;;;;;;;;;18.35;40.95;100754.44;10327071;28;855;-71
2024/01/29 13:15:39;;;;;;;;;;;;;;;18.42;40.95;100756.88;10309269;28;731;-72
2024/01/29 13:20:36;;;;;;;;;;;;;;;18.50;40.94;100747.84;10326675;28;1897;-76
2024/01/29 13:25:32;;;;;;;;;;;;;;;18.54;40.73;100748.59;10326377;28;1758;-70
2024/01/29 13:30:28;;;;;;;;;;;;;;;18.54;40.80;100741.53;10327273;28;839;-71
2024/01/29 13:35:24;;;;;;;;;;;;;;;18.62;40.76;100750.09;10326267;28;874;-71
2024/01/29 13:40:20;;;;;;;;;;;;;;;18.64;40.61;100749.19;10325217;28;1972;-71
2024/01/29 13:45:15;;;;;;;;;;;;;;;18.65;40.76;100756.19;10326560;28;873;-71
2024/01/29 13:50:11;;;;;;;;;;;;;;;18.63;40.75;100750.97;10327077;28;869;-71
2024/01/29 13:55:09;;;;;;;;;;;;;;;18.65;40.88;100757.06;10325299;28;992;-70
2024/01/29 14:00:05;;;;;;;;;;;;;;;18.71;40.63;100753.38;10326091;28;1889;-71
2024/01/29 14:05:00;;;;;;;;;;;;;;;18.69;40.69;100749.91;10325729;28;822;-74
2024/01/29 14:09:56;;;;;;;;;;;;;;;18.66;40.88;100756.16;10325849;28;819;-75
2024/01/29 14:14:52;;;;;;;;;;;;;;;18.66;40.90;100763.22;10324997;28;864;-82
2024/01/29 14:19:48;;;;;;;;;;;;;;;18.64;40.91;100765.03;10325535;28;1960;-71
2024/01/29 14:24:45;;;;;;;;;;;;;;;18.57;40.92;100757.28;10324893;28;810;-73
2024/01/29 14:29:41;;;;;;;;;;;;;;;18.56;40.96;100757.34;10325116;28;1298;-69
2024/01/29 14:34:37;;;;;;;;;;;;;;;18.55;41.12;100751.22;10324642;28;775;-69
2024/01/29 14:39:33;;;;;;;;;;;;;;;18.54;41.30;100743.31;10324499;28;1914;-74
2024/01/29 14:44:28;;;;;;;;;;;;;;;18.50;41.29;100739.94;10325202;28;816;-77
2024/01/29 14:49:24;;;;;;;;;;;;;;;18.50;41.09;100741.72;10327350;28;866;-77
2024/01/29 14:54:23;;;;;;;;;;;;;;;18.47;41.28;100749.69;10332191;28;1129;-77
2024/01/29 14:59:19;;;;;;;;;;;;;;;18.45;41.17;100749.75;10332015;28;1901;-79
2024/01/29 15:04:15;;;;;;;;;;;;;;;18.44;41.14;100749.78;10332005;28;976;-77
2024/01/29 15:09:11;;;;;;;;;;;;;;;18.43;41.26;100753.34;10330968;28;1164;-69
2024/01/29 15:14:07;;;;;;;;;;;;;;;18.43;41.66;100758.63;10331539;28;818;-69
2024/01/29 15:19:03;;;;;;;;;;;;;;;18.43;41.79;100762.13;10331696;28;1902;-68
2024/01/29 15:23:59;;;;;;;;;;;;;;;18.39;41.89;100764.00;10331050;28;825;-68
2024/01/29 15:28:55;;;;;;;;;;;;;;;18.38;41.96;100761.41;10330073;28;1379;-68
2024/01/29 15:33:51;;;;;;;;;;;;;;;18.35;42.13;100756.22;10330734;28;870;-69
2024/01/29 15:38:47;;;;;;;;;;;;;;;18.33;42.40;100761.53;10330555;28;1974;-69
2024/01/29 15:43:43;;;;;;;;;;;;;;;18.31;42.47;100754.56;10330744;28;821;-69
2024/01/29 15:48:38;;;;;;;;;;;;;;;18.30;42.59;100752.84;10330120;28;843;-69
2024/01/29 15:53:35;;;;;;;;;;;;;;;18.30;42.58;100748.44;10330882;28;903;-68
2024/01/29 15:58:31;;;;;;;;;;;;;;;18.30;42.50;100747.56;10329792;28;1963;-68
2024/01/29 16:03:26;;;;;;;;;;;;;;;18.28;42.44;100750.25;10329534;28;794;-68
2024/01/29 16:08:22;;;;;;;;;;;;;;;18.27;42.58;100753.81;10329505;28;779;-68
2024/01/29 16:13:18;;;;;;;;;;;;;;;18.28;42.53;100749.38;10329319;28;972;-69
2024/01/29 16:18:14;;;;;;;;;;;;;;;18.27;42.60;100753.81;10329742;28;837;-68
2024/01/29 16:23:10;;;;;;;;;;;;;;;18.28;42.76;100749.38;10329289;28;1955;-68
2024/01/29 16:28:06;;;;;;;;;;;;;;;18.29;42.54;100753.78;10328908;28;1300;-68
2024/01/29 16:33:02;;;;;;;;;;;;;;;18.28;42.67;100746.75;10328393;28;845;-68
2024/01/29 16:37:58;;;;;;;;;;;;;;;18.28;42.53;100750.25;10328263;28;870;-68
2024/01/29 16:42:54;;;;;;;;;;;;;;;18.28;42.53;100754.66;10328032;28;1918;-68
2024/01/29 16:47:50;;;;;;;;;;;;;;;18.28;42.75;100755.53;10327159;28;917;-70
2024/01/29 16:52:46;;;;;;;;;;;;;;;18.28;42.62;100768.72;10328180;28;792;-70
2024/01/29 16:57:42;;;;;;;;;;;;;;;18.29;42.80;100766.97;10327380;28;879;-69
2024/01/29 17:02:38;;;;;;;;;;;;;;;18.28;42.48;100766.06;10327177;28;1902;-69
2024/01/29 17:07:34;;;;;;;;;;;;;;;18.28;42.60;100775.78;10327125;28;814;-70
2024/01/29 17:12:30;;;;;;;;;;;;;;;18.29;42.59;100774.88;10326389;28;906;-69
2024/01/29 17:17:26;;;;;;;;;;;;;;;18.29;42.58;100777.53;10326036;28;863;-69
2024/01/29 17:22:22;;;;;;;;;;;;;;;18.29;42.45;100783.66;10326477;28;1967;-70
2024/01/29 17:27:18;;;;;;;;;;;;;;;18.33;42.48;100787.06;10326344;28;1111;-70
2024/01/29 17:32:14;;;;;;;;;;;;;;;18.33;42.48;100790.56;10326151;28;958;-70
2024/01/29 17:37:10;;;;;;;;;;;;;;;18.33;42.29;100793.19;10325902;28;891;-70
2024/01/29 17:42:06;;;;;;;;;;;;;;;18.35;42.45;100793.16;10325193;28;1977;-70
2024/01/29 17:47:02;;;;;;;;;;;;;;;18.36;42.65;100805.44;10326474;28;861;-70
2024/01/29 17:51:58;;;;;;;;;;;;;;;18.37;42.51;100797.50;10326397;28;838;-70
2024/01/29 17:56:54;;;;;;;;;;;;;;;18.37;42.51;100797.50;10325502;28;919;-71
2024/01/29 18:01:50;;;;;;;;;;;;;;;18.39;42.44;100797.44;10325459;28;1963;-70
2024/01/29 18:06:46;;;;;;;;;;;;;;;18.39;42.33;100802.72;10325177;28;1063;-70
2024/01/29 18:11:42;;;;;;;;;;;;;;;18.38;42.45;100803.63;10325188;28;790;-70
2024/01/29 18:16:38;;;;;;;;;;;;;;;18.39;42.40;100797.44;10325663;28;783;-70
2024/01/29 18:21:34;;;;;;;;;;;;;;;18.42;42.33;100800.00;10325450;28;1902;-70
2024/01/29 18:26:30;;;;;;;;;;;;;;;18.42;42.66;100799.13;10330947;28;1379;-71
2024/01/29 18:31:26;;;;;;;;;;;;;;;18.41;42.46;100792.97;10333136;28;777;-70
2024/01/29 18:36:22;;;;;;;;;;;;;;;18.44;42.46;100798.16;10332363;28;962;-70
2024/01/29 18:41:18;;;;;;;;;;;;;;;18.43;42.43;100804.38;10333388;28;1977;-70
2024/01/29 18:46:15;;;;;;;;;;;;;;;18.44;42.51;100810.50;10332504;28;938;-70
2024/01/29 18:51:11;;;;;;;;;;;;;;;18.45;42.61;100814.91;10332431;28;799;-70
2024/01/29 18:56:07;;;;;;;;;;;;;;;18.45;42.41;100813.13;10332800;28;839;-69
2024/01/29 19:01:03;;;;;;;;;;;;;;;18.45;42.49;100821.03;10332561;28;1893;-70
2024/01/29 19:05:58;;;;;;;;;;;;;;;18.47;42.34;100824.50;10332400;28;766;-69
2024/01/29 19:10:57;;;;;;;;;;;;;;;18.49;42.40;100832.38;10331695;28;782;-70
2024/01/29 19:15:53;;;;;;;;;;;;;;;18.50;42.50;100829.69;10331442;28;950;-70
2024/01/29 19:20:49;;;;;;;;;;;;;;;18.48;42.40;100825.38;10331785;28;1961;-70
2024/01/29 19:25:45;;;;;;;;;;;;;;;18.50;42.29;100836.75;10331242;28;1198;-69
2024/01/29 19:30:41;;;;;;;;;;;;;;;18.50;42.68;100845.53;10330947;28;867;-70
2024/01/29 19:35:37;;;;;;;;;;;;;;;18.50;42.51;100842.88;10330210;28;903;-71
2024/01/29 19:40:33;;;;;;;;;;;;;;;18.52;42.71;100834.91;10330511;28;1886;-70
2024/01/29 19:45:29;;;;;;;;;;;;;;;18.51;42.73;100836.69;10330283;28;958;-70
2024/01/29 19:50:25;;;;;;;;;;;;;;;18.51;42.50;100836.69;10330227;28;795;-69
2024/01/29 19:55:21;;;;;;;;;;;;;;;18.53;42.32;100832.22;10330644;28;884;-70
2024/01/29 20:00:17;;;;;;;;;;;;;;;18.53;42.57;100845.44;10329940;28;1955;-70
2024/01/29 20:05:13;;;;;;;;;;;;;;;18.53;42.52;100847.22;10329707;28;787;-70
2024/01/29 20:10:09;;;;;;;;;;;;;;;18.53;42.43;100845.44;10329479;28;811;-70
2024/01/29 20:15:04;;;;;;;;;;;;;;;18.54;42.37;100833.09;10328591;28;883;-70
2024/01/29 20:20:00;;;;;;;;;;;;;;;18.54;42.45;100831.31;10329052;28;1898;-70
2024/01/29 20:24:56;;;;;;;;;;;;;;;18.53;42.46;100831.38;10329331;28;1174;-69
2024/01/29 20:29:52;;;;;;;;;;;;;;;18.53;42.44;100829.59;10328718;28;835;-70
2024/01/29 20:34:48;;;;;;;;;;;;;;;18.54;42.29;100831.31;10329063;28;917;-70
2024/01/29 20:39:44;;;;;;;;;;;;;;;18.54;42.35;100827.81;10328830;28;1978;-70
2024/01/29 20:44:40;;;;;;;;;;;;;;;18.53;42.45;100828.75;10328061;28;752;-70
2024/01/29 20:49:36;;;;;;;;;;;;;;;18.52;42.49;100830.53;10327027;28;948;-69
2024/01/29 20:54:31;;;;;;;;;;;;;;;18.52;42.35;100816.44;10327684;28;912;-70
2024/01/29 20:59:27;;;;;;;;;;;;;;;18.48;42.55;100820.94;10327977;28;1951;-70
2024/01/29 21:04:24;;;;;;;;;;;;;;;18.48;42.64;100813.03;10328042;28;843;-70
2024/01/29 21:09:20;;;;;;;;;;;;;;;18.48;42.41;100802.47;10327054;28;905;-70
2024/01/29 21:14:16;;;;;;;;;;;;;;;18.47;42.52;100803.38;10326878;28;867;-70
2024/01/29 21:19:13;;;;;;;;;;;;;;;18.47;42.59;100800.75;10327253;28;1897;-71
2024/01/29 21:24:09;;;;;;;;;;;;;;;18.45;42.68;100802.56;10326340;28;986;-71
2024/01/29 21:29:04;;;;;;;;;;;;;;;18.44;42.36;100806.09;10326526;28;1384;-70
2024/01/29 21:34:00;;;;;;;;;;;;;;;18.45;42.47;100804.34;10326174;28;989;-70
2024/01/29 21:38:56;;;;;;;;;;;;;;;18.43;42.38;100806.16;10325968;28;1922;-70
2024/01/29 21:43:52;;;;;;;;;;;;;;;18.43;42.31;100812.28;10326446;28;790;-70
2024/01/29 21:48:48;;;;;;;;;;;;;;;18.40;42.47;100812.38;10325762;28;894;-70
2024/01/29 21:53:44;;;;;;;;;;;;;;;18.39;42.42;100808.88;10325686;28;787;-69
2024/01/29 21:58:40;;;;;;;;;;;;;;;18.38;42.56;100809.78;10325458;28;1898;-70
2024/01/29 22:03:36;;;;;;;;;;;;;;;18.37;42.41;100810.69;10326256;28;874;-70
2024/01/29 22:08:32;;;;;;;;;;;;;;;18.35;42.66;100807.22;10325570;28;771;-70
2024/01/29 22:13:28;;;;;;;;;;;;;;;18.33;42.49;100808.19;10325352;28;973;-70
2024/01/29 22:18:23;;;;;;;;;;;;;;;18.32;42.58;100814.38;10325914;28;961;-70
2024/01/29 22:23:19;;;;;;;;;;;;;;;18.30;42.74;100809.13;10324612;28;1890;-70
2024/01/29 22:28:15;;;;;;;;;;;;;;;18.30;42.61;100813.56;10325761;28;1226;-69
2024/01/29 22:33:11;;;;;;;;;;;;;;;18.27;42.63;100809.22;10325042;28;870;-69
2024/01/29 22:38:07;;;;;;;;;;;;;;;18.26;42.60;100809.25;10326443;28;871;-69
2024/01/29 22:43:03;;;;;;;;;;;;;;;18.24;42.57;100819.88;10324940;28;1906;-69
2024/01/29 22:47:59;;;;;;;;;;;;;;;18.24;42.76;100813.75;10324889;28;1011;-69
2024/01/29 22:52:55;;;;;;;;;;;;;;;18.23;42.69;100812.00;10324692;28;937;-70
2024/01/29 22:57:51;;;;;;;;;;;;;;;18.20;42.66;100814.72;10325140;28;873;-70
2024/01/29 23:02:47;;;;;;;;;;;;;;;18.19;42.70;100816.50;10324957;28;1944;-69
2024/01/29 23:07:43;;;;;;;;;;;;;;;18.17;42.71;100819.16;10324432;28;874;-69
2024/01/29 23:12:38;;;;;;;;;;;;;;;18.17;42.78;100815.66;10329937;28;774;-70
2024/01/29 23:17:34;;;;;;;;;;;;;;;18.15;42.94;100820.97;10331740;28;854;-69
2024/01/29 23:22:30;;;;;;;;;;;;;;;18.15;42.56;100817.47;10332424;28;1889;-69
2024/01/29 23:27:26;;;;;;;;;;;;;;;18.13;42.64;100830.72;10331220;28;1258;-70
2024/01/29 23:32:22;;;;;;;;;;;;;;;18.12;42.72;100828.97;10331926;28;894;-69
2024/01/29 23:37:18;;;;;;;;;;;;;;;18.10;42.73;100830.81;10330964;28;1168;-70
2024/01/29 23:42:14;;;;;;;;;;;;;;;18.10;42.66;100829.94;10330778;28;1913;-70
2024/01/29 23:47:09;;;;;;;;;;;;;;;18.10;42.85;100836.09;10330674;28;819;-70
2024/01/29 23:52:10;;;;;;;;;;;;;;;18.09;42.77;100828.22;10330468;28;830;-70
2024/01/29 23:57:06;;;;;;;;;;;;;;;18.07;42.74;100830.88;10330268;28;870;-70
